createdAt,value
2023-01-06T00:00:13.690Z,11.50
2023-01-06T00:03:15.784Z,11.50
2023-01-06T00:06:19.128Z,11.60
2023-01-06T00:09:21.189Z,11.50
2023-01-06T00:12:23.550Z,11.50
2023-01-06T00:15:25.744Z,11.50
2023-01-06T00:18:28.056Z,11.50
2023-01-06T00:21:31.436Z,11.50
2023-01-06T00:24:34.076Z,11.40
2023-01-06T00:27:36.632Z,11.50
2023-01-06T00:30:38.768Z,11.50
2023-01-06T00:33:41.732Z,11.40
2023-01-06T00:36:44.959Z,11.40
2023-01-06T00:39:47.068Z,11.40
2023-01-06T00:42:49.195Z,11.40
2023-01-06T00:45:51.702Z,11.30
2023-01-06T00:49:04.642Z,11.30
2023-01-06T00:52:07.679Z,11.30
2023-01-06T00:55:22.874Z,11.20
2023-01-06T00:58:30.661Z,11.20
2023-01-06T01:01:34.192Z,11.20
2023-01-06T01:04:36.476Z,11.10
2023-01-06T01:07:38.704Z,11.10
2023-01-06T01:10:40.759Z,11.10
2023-01-06T01:13:43.962Z,11.10
2023-01-06T01:16:46.530Z,11.10
2023-01-06T01:19:50.372Z,11.00
2023-01-06T01:22:52.430Z,11.10
2023-01-06T01:25:58.390Z,11.00
2023-01-06T01:29:01.435Z,11.00
2023-01-06T01:32:03.809Z,11.00
2023-01-06T01:35:06.370Z,11.00
2023-01-06T01:38:09.333Z,10.90
2023-01-06T01:41:17.174Z,10.90
2023-01-06T01:45:13.587Z,10.90
2023-01-06T01:48:25.410Z,10.90
2023-01-06T01:51:33.665Z,10.80
2023-01-06T01:54:36.924Z,10.80
2023-01-06T01:58:05.780Z,10.80
2023-01-06T02:01:10.662Z,10.80
2023-01-06T02:04:13.191Z,10.70
2023-01-06T02:07:15.432Z,10.80
2023-01-06T02:10:20.793Z,10.70
2023-01-06T02:13:23.317Z,10.70
2023-01-06T02:16:55.278Z,10.70
2023-01-06T02:20:37.529Z,10.70
2023-01-06T02:24:18.004Z,10.70
2023-01-06T02:27:34.890Z,10.70
2023-01-06T02:31:16.806Z,10.60
2023-01-06T02:34:54.185Z,10.50
2023-01-06T02:38:28.550Z,10.50
2023-01-06T02:41:47.320Z,10.40
2023-01-06T02:45:27.811Z,10.40
2023-01-06T02:49:09.603Z,10.40
2023-01-06T02:52:37.662Z,10.40
2023-01-06T02:55:55.034Z,10.40
2023-01-06T02:59:05.985Z,10.40
2023-01-06T03:02:11.614Z,10.40
2023-01-06T03:05:16.323Z,10.40
2023-01-06T03:08:30.613Z,10.40
2023-01-06T03:11:35.160Z,10.40
2023-01-06T03:14:43.207Z,10.40
2023-01-06T03:17:45.563Z,10.40
2023-01-06T03:20:51.129Z,10.40
2023-01-06T03:23:54.272Z,10.40
2023-01-06T03:26:57.247Z,10.40
2023-01-06T03:30:04.581Z,10.40
2023-01-06T03:33:33.313Z,10.40
2023-01-06T03:36:57.384Z,10.50
2023-01-06T03:40:28.062Z,10.50
2023-01-06T03:43:44.206Z,10.50
2023-01-06T03:46:55.043Z,10.50
2023-01-06T03:50:16.512Z,10.50
2023-01-06T03:53:30.542Z,10.50
2023-01-06T03:56:38.595Z,10.50
2023-01-06T03:59:53.264Z,10.50
2023-01-06T04:02:56.268Z,10.60
2023-01-06T04:05:58.431Z,10.60
2023-01-06T04:09:01.029Z,10.60
2023-01-06T04:12:21.443Z,10.70
2023-01-06T04:15:26.623Z,10.70
2023-01-06T04:18:28.875Z,10.70
2023-01-06T04:21:32.168Z,10.70
2023-01-06T04:24:34.296Z,10.70
2023-01-06T04:27:36.470Z,10.70
2023-01-06T04:30:38.488Z,10.60
2023-01-06T04:33:40.568Z,10.60
2023-01-06T04:36:42.724Z,10.60
2023-01-06T04:39:45.487Z,10.60
2023-01-06T04:43:05.592Z,10.60
2023-01-06T04:46:09.758Z,10.60
2023-01-06T04:49:13.181Z,10.60
2023-01-06T04:52:16.535Z,10.60
2023-01-06T04:55:18.723Z,10.50
2023-01-06T04:58:20.926Z,10.50
2023-01-06T05:01:24.339Z,10.60
2023-01-06T05:04:28.464Z,10.60
2023-01-06T05:07:32.196Z,10.60
2023-01-06T05:10:34.273Z,10.50
2023-01-06T05:13:36.899Z,10.50
2023-01-06T05:16:39.936Z,10.50
2023-01-06T05:19:43.153Z,10.50
2023-01-06T05:22:45.283Z,10.50
2023-01-06T05:25:51.608Z,10.50
2023-01-06T05:28:54.924Z,10.40
2023-01-06T05:31:57.164Z,10.40
2023-01-06T05:34:59.238Z,10.40
2023-01-06T05:38:01.371Z,10.40
2023-01-06T05:41:03.703Z,10.50
2023-01-06T05:44:05.869Z,10.50
2023-01-06T05:47:08.007Z,10.50
2023-01-06T05:50:10.404Z,10.50
2023-01-06T05:53:12.594Z,10.60
2023-01-06T05:56:17.787Z,10.60
2023-01-06T05:59:20.317Z,10.60
2023-01-06T06:02:22.455Z,10.60
2023-01-06T06:05:24.537Z,10.60
2023-01-06T06:08:26.727Z,10.60
2023-01-06T06:11:28.902Z,10.60
2023-01-06T06:14:31.131Z,10.70
2023-01-06T06:17:33.250Z,10.70
2023-01-06T06:20:35.435Z,10.70
2023-01-06T06:23:37.542Z,10.70
2023-01-06T06:26:39.678Z,10.80
2023-01-06T06:29:41.931Z,10.80
2023-01-06T06:32:44.116Z,10.80
2023-01-06T06:35:55.503Z,10.80
2023-01-06T06:38:58.967Z,10.90
2023-01-06T06:42:01.351Z,10.80
2023-01-06T06:45:03.690Z,10.90
2023-01-06T06:48:06.277Z,10.90
2023-01-06T06:51:11.550Z,11.00
2023-01-06T06:54:16.649Z,10.90
2023-01-06T06:57:18.771Z,10.90
2023-01-06T07:00:20.941Z,11.00
2023-01-06T07:03:25.360Z,11.00
2023-01-06T07:06:28.901Z,11.00
2023-01-06T07:09:31.786Z,11.00
2023-01-06T07:12:36.166Z,11.10
2023-01-06T07:15:38.305Z,11.00
2023-01-06T07:18:40.670Z,11.10
2023-01-06T07:21:42.915Z,11.10
2023-01-06T07:24:45.450Z,11.10
2023-01-06T07:27:49.637Z,11.10
2023-01-06T07:30:53.073Z,11.10
2023-01-06T07:33:55.261Z,11.10
2023-01-06T07:36:57.367Z,11.00
2023-01-06T07:39:59.559Z,11.10
2023-01-06T07:43:09.822Z,11.10
2023-01-06T07:46:12.776Z,11.10
2023-01-06T07:49:15.636Z,11.00
2023-01-06T07:52:17.745Z,11.00
2023-01-06T07:55:19.839Z,10.90
2023-01-06T07:58:24.244Z,11.00
2023-01-06T08:01:26.467Z,11.00
2023-01-06T08:04:28.656Z,11.00
2023-01-06T08:07:30.797Z,11.00
2023-01-06T08:10:33.023Z,10.90
2023-01-06T08:13:35.192Z,10.90
2023-01-06T08:16:39.315Z,10.90
2023-01-06T08:19:41.421Z,10.90
2023-01-06T08:22:43.506Z,11.00
2023-01-06T08:25:45.615Z,11.00
2023-01-06T08:28:47.860Z,11.00
2023-01-06T08:31:51.598Z,11.10
2023-01-06T08:34:56.944Z,11.10
2023-01-06T08:37:59.010Z,11.20
2023-01-06T08:41:02.132Z,11.40
2023-01-06T08:44:04.359Z,11.50
2023-01-06T08:47:06.699Z,11.60
2023-01-06T08:50:08.978Z,11.80
2023-01-06T08:53:12.274Z,12.20
2023-01-06T08:56:23.469Z,12.90
2023-01-06T08:59:25.981Z,13.60
2023-01-06T09:02:30.647Z,14.10
2023-01-06T09:05:32.942Z,15.00
2023-01-06T09:08:35.034Z,15.50
2023-01-06T09:11:37.497Z,15.40
2023-01-06T09:14:39.619Z,15.90
2023-01-06T09:17:42.182Z,16.90
2023-01-06T09:20:44.407Z,17.70
2023-01-06T09:23:47.400Z,18.00
2023-01-06T09:26:49.534Z,17.70
2023-01-06T09:29:51.690Z,17.00
2023-01-06T09:32:54.238Z,16.20
2023-01-06T09:35:56.331Z,15.60
2023-01-06T09:38:58.550Z,15.20
2023-01-06T09:42:34.400Z,14.80
2023-01-06T09:45:45.640Z,14.40
2023-01-06T09:49:05.027Z,14.20
2023-01-06T09:52:38.077Z,14.00
2023-01-06T09:55:48.172Z,14.60
2023-01-06T09:59:05.975Z,14.80
2023-01-06T10:02:34.555Z,14.60
2023-01-06T10:05:52.662Z,15.00
2023-01-06T10:09:26.301Z,15.40
2023-01-06T10:12:48.077Z,16.00
2023-01-06T10:16:36.794Z,18.10
2023-01-06T10:19:55.580Z,20.70
2023-01-06T10:23:24.981Z,22.60
2023-01-06T10:26:32.634Z,23.50
2023-01-06T10:29:37.770Z,24.80
2023-01-06T10:32:42.719Z,25.40
2023-01-06T10:35:44.968Z,25.40
2023-01-06T10:38:52.236Z,26.00
2023-01-06T10:42:42.466Z,26.00
2023-01-06T10:45:48.361Z,25.60
2023-01-06T10:48:50.616Z,25.70
2023-01-06T10:51:57.549Z,25.90
2023-01-06T10:55:04.929Z,26.30
2023-01-06T10:58:20.700Z,26.40
2023-01-06T11:01:29.072Z,27.70
2023-01-06T11:04:31.226Z,27.60
2023-01-06T11:07:34.445Z,27.60
2023-01-06T11:10:37.563Z,27.80
2023-01-06T11:13:41.587Z,27.70
2023-01-06T11:16:52.924Z,27.70
2023-01-06T11:20:24.316Z,27.70
2023-01-06T11:23:29.170Z,28.20
2023-01-06T11:26:37.404Z,28.30
2023-01-06T11:29:39.447Z,28.30
2023-01-06T11:32:42.882Z,28.30
2023-01-06T11:35:45.216Z,28.20
2023-01-06T11:38:51.180Z,28.60
2023-01-06T11:41:55.703Z,28.80
2023-01-06T11:44:58.945Z,28.90
2023-01-06T11:48:02.864Z,28.50
2023-01-06T11:51:09.087Z,27.30
2023-01-06T11:54:34.850Z,27.00
2023-01-06T11:57:47.310Z,27.00
2023-01-06T12:00:57.079Z,26.30
2023-01-06T12:04:10.800Z,25.50
2023-01-06T12:07:41.020Z,24.30
2023-01-06T12:10:45.581Z,22.60
2023-01-06T12:14:08.465Z,21.20
2023-01-06T12:17:30.061Z,20.50
2023-01-06T12:20:38.715Z,19.60
2023-01-06T12:23:44.205Z,19.20
2023-01-06T12:26:47.312Z,19.00
2023-01-06T12:29:52.607Z,18.80
2023-01-06T12:32:59.879Z,18.50
2023-01-06T12:36:16.050Z,18.10
2023-01-06T12:39:28.140Z,17.90
2023-01-06T12:42:58.069Z,18.00
2023-01-06T12:46:10.306Z,17.90
2023-01-06T12:49:19.343Z,17.60
2023-01-06T12:52:59.881Z,17.30
2023-01-06T12:56:31.132Z,16.90
2023-01-06T13:00:01.122Z,17.00
2023-01-06T13:03:30.048Z,17.00
2023-01-06T13:06:50.146Z,17.10
2023-01-06T13:09:55.008Z,17.00
2023-01-06T13:13:29.000Z,16.80
2023-01-06T13:16:58.897Z,16.80
2023-01-06T13:20:03.444Z,17.20
2023-01-06T13:23:32.784Z,17.20
2023-01-06T13:26:40.991Z,17.20
2023-01-06T13:30:12.190Z,17.30
2023-01-06T13:33:50.106Z,17.40
2023-01-06T13:37:07.028Z,17.40
2023-01-06T13:40:14.736Z,17.30
2023-01-06T13:43:22.286Z,17.20
2023-01-06T13:46:26.701Z,17.10
2023-01-06T13:49:29.450Z,17.00
2023-01-06T13:52:32.341Z,17.00
2023-01-06T13:55:39.197Z,16.80
2023-01-06T13:58:46.569Z,16.70
2023-01-06T14:01:50.637Z,16.60
2023-01-06T14:04:53.566Z,16.50
2023-01-06T14:08:03.623Z,16.50
2023-01-06T14:11:33.916Z,16.50
2023-01-06T14:14:39.265Z,16.70
2023-01-06T14:17:43.324Z,16.80
2023-01-06T14:20:47.932Z,17.00
2023-01-06T14:24:31.485Z,17.10
2023-01-06T14:27:46.096Z,16.90
2023-01-06T14:30:52.551Z,17.00
2023-01-06T14:34:02.736Z,16.80
2023-01-06T14:37:10.825Z,16.70
2023-01-06T14:40:40.820Z,16.60
2023-01-06T14:44:03.746Z,16.60
2023-01-06T14:47:13.369Z,16.60
2023-01-06T14:50:24.855Z,16.60
2023-01-06T14:53:35.804Z,16.70
2023-01-06T14:56:37.839Z,16.70
2023-01-06T14:59:40.229Z,16.70
2023-01-06T15:03:05.970Z,16.60
2023-01-06T15:06:11.588Z,16.60
2023-01-06T15:09:22.611Z,16.60
2023-01-06T15:12:33.932Z,16.70
2023-01-06T15:15:38.305Z,16.70
2023-01-06T15:18:44.056Z,16.80
2023-01-06T15:21:47.699Z,16.80
2023-01-06T15:24:50.139Z,16.80
2023-01-06T15:27:57.186Z,16.70
2023-01-06T15:31:01.333Z,16.60
2023-01-06T15:34:20.746Z,16.50
2023-01-06T15:37:26.286Z,16.50
2023-01-06T15:40:29.185Z,16.30
2023-01-06T15:43:51.514Z,16.30
2023-01-06T15:47:15.469Z,16.40
2023-01-06T15:50:23.624Z,16.50
2023-01-06T15:53:32.583Z,16.50
2023-01-06T15:56:35.025Z,16.50
2023-01-06T15:59:38.557Z,16.50
2023-01-06T16:02:40.785Z,16.50
2023-01-06T16:05:49.747Z,16.40
2023-01-06T16:08:52.742Z,16.40
2023-01-06T16:12:04.131Z,16.30
2023-01-06T16:15:34.827Z,16.20
2023-01-06T16:18:38.270Z,16.10
2023-01-06T16:21:43.005Z,16.10
2023-01-06T16:24:51.578Z,16.10
2023-01-06T16:27:57.631Z,16.20
2023-01-06T16:31:10.951Z,16.20
2023-01-06T16:34:21.872Z,16.10
2023-01-06T16:37:23.924Z,16.10
2023-01-06T16:40:29.074Z,16.10
2023-01-06T16:43:31.370Z,16.00
2023-01-06T16:46:33.689Z,16.00
2023-01-06T16:49:35.801Z,16.00
2023-01-06T16:52:38.165Z,16.10
2023-01-06T16:55:41.604Z,16.00
2023-01-06T16:58:44.131Z,16.00
2023-01-06T17:01:48.196Z,16.00
2023-01-06T17:04:50.525Z,16.00
2023-01-06T17:07:57.253Z,15.90
2023-01-06T17:11:10.651Z,15.90
2023-01-06T17:14:17.908Z,15.90
2023-01-06T17:17:22.706Z,15.90
2023-01-06T17:20:25.586Z,15.80
2023-01-06T17:23:28.103Z,15.80
2023-01-06T17:26:30.570Z,15.70
2023-01-06T17:29:38.026Z,15.70
2023-01-06T17:32:43.541Z,15.70
2023-01-06T17:35:50.907Z,15.60
2023-01-06T17:38:53.279Z,15.60
2023-01-06T17:42:07.905Z,15.60
2023-01-06T17:45:23.097Z,15.50
2023-01-06T17:48:26.781Z,15.50
2023-01-06T17:51:28.992Z,15.40
2023-01-06T17:54:50.518Z,15.40
2023-01-06T17:57:56.778Z,15.30
2023-01-06T18:01:01.543Z,15.20
2023-01-06T18:04:09.210Z,15.20
2023-01-06T18:07:14.557Z,15.00
2023-01-06T18:10:19.021Z,15.00
2023-01-06T18:13:32.748Z,14.90
2023-01-06T18:16:35.592Z,14.80
2023-01-06T18:19:38.564Z,14.80
2023-01-06T18:22:40.791Z,14.70
2023-01-06T18:25:42.954Z,14.70
2023-01-06T18:28:45.178Z,14.70
2023-01-06T18:31:49.887Z,14.70
2023-01-06T18:34:56.340Z,14.70
2023-01-06T18:38:03.451Z,14.70
2023-01-06T18:41:11.560Z,14.70
2023-01-06T18:44:19.798Z,14.70
2023-01-06T18:47:23.694Z,14.70
2023-01-06T18:50:38.486Z,14.70
2023-01-06T18:53:44.652Z,14.70
2023-01-06T18:56:46.689Z,14.60
2023-01-06T18:59:48.774Z,14.60
2023-01-06T19:02:51.940Z,14.60
2023-01-06T19:05:59.269Z,14.60
2023-01-06T19:09:03.011Z,14.50
2023-01-06T19:12:17.146Z,14.50
2023-01-06T19:15:24.243Z,14.50
2023-01-06T19:18:32.521Z,14.50
2023-01-06T19:21:35.938Z,14.50
2023-01-06T19:24:46.488Z,14.50
2023-01-06T19:27:59.380Z,14.60
2023-01-06T19:31:03.312Z,14.60
2023-01-06T19:34:14.705Z,14.60
2023-01-06T19:37:18.429Z,14.70
2023-01-06T19:40:27.029Z,14.70
2023-01-06T19:43:36.372Z,14.70
2023-01-06T19:46:46.658Z,14.70
2023-01-06T19:49:53.289Z,14.70
2023-01-06T19:53:00.232Z,14.80
2023-01-06T19:56:19.775Z,14.80
2023-01-06T19:59:32.954Z,14.80
2023-01-06T20:02:45.331Z,14.80
2023-01-06T20:05:47.657Z,14.90
2023-01-06T20:08:53.292Z,14.90
2023-01-06T20:11:55.591Z,14.90
2023-01-06T20:14:57.989Z,15.00
2023-01-06T20:18:00.160Z,15.00
2023-01-06T20:21:03.101Z,15.00
2023-01-06T20:24:05.882Z,14.90
2023-01-06T20:27:07.993Z,14.90
2023-01-06T20:30:10.916Z,14.90
2023-01-06T20:33:13.131Z,14.80
2023-01-06T20:36:17.382Z,14.80
2023-01-06T20:39:19.458Z,14.80
2023-01-06T20:42:21.597Z,14.70
2023-01-06T20:45:23.732Z,14.70
2023-01-06T20:48:25.996Z,14.70
2023-01-06T20:51:29.484Z,14.70
2023-01-06T20:54:31.876Z,14.60
2023-01-06T20:57:34.031Z,14.70
2023-01-06T21:00:36.628Z,14.70
2023-01-06T21:03:38.830Z,14.70
2023-01-06T21:06:41.027Z,14.70
2023-01-06T21:09:43.237Z,14.70
2023-01-06T21:12:45.377Z,14.70
2023-01-06T21:15:47.423Z,14.80
2023-01-06T21:18:49.820Z,14.80
2023-01-06T21:21:51.980Z,14.80
2023-01-06T21:24:54.090Z,14.90
2023-01-06T21:27:56.193Z,14.90
2023-01-06T21:30:59.796Z,14.90
2023-01-06T21:34:01.892Z,14.90
2023-01-06T21:37:04.223Z,15.00
2023-01-06T21:40:09.598Z,14.90
2023-01-06T21:43:12.046Z,14.90
2023-01-06T21:46:14.273Z,14.90
2023-01-06T21:49:16.440Z,14.90
2023-01-06T21:52:18.595Z,14.90
2023-01-06T21:55:21.062Z,14.90
2023-01-06T21:58:23.447Z,14.90
2023-01-06T22:01:26.054Z,14.80
2023-01-06T22:04:28.439Z,14.80
2023-01-06T22:07:31.095Z,14.80
2023-01-06T22:10:34.332Z,14.80
2023-01-06T22:13:38.803Z,14.80
2023-01-06T22:16:41.729Z,14.80
2023-01-06T22:19:46.188Z,14.80
2023-01-06T22:22:48.596Z,14.80
2023-01-06T22:25:51.597Z,14.80
2023-01-06T22:28:53.783Z,14.80
2023-01-06T22:32:05.201Z,14.90
2023-01-06T22:35:09.244Z,14.90
2023-01-06T22:38:11.304Z,14.90
2023-01-06T22:41:13.410Z,14.90
2023-01-06T22:44:15.634Z,14.90
2023-01-06T22:47:18.954Z,14.80
2023-01-06T22:50:21.394Z,14.80
2023-01-06T22:53:23.474Z,14.70
2023-01-06T22:56:25.646Z,14.70
2023-01-06T22:59:27.867Z,14.60
2023-01-06T23:02:30.161Z,14.60
2023-01-06T23:05:32.367Z,14.60
2023-01-06T23:08:38.869Z,14.60
2023-01-06T23:11:43.998Z,14.60
2023-01-06T23:14:49.393Z,14.60
2023-01-06T23:17:51.469Z,14.50
2023-01-06T23:21:02.036Z,14.50
2023-01-06T23:24:04.506Z,14.40
2023-01-06T23:27:06.933Z,14.40
2023-01-06T23:30:09.836Z,14.30
2023-01-06T23:33:20.946Z,14.30
2023-01-06T23:36:26.193Z,14.30
2023-01-06T23:39:28.573Z,14.30
2023-01-06T23:42:40.495Z,14.30
2023-01-06T23:45:50.131Z,14.30
2023-01-06T23:48:53.553Z,14.40
2023-01-06T23:51:55.894Z,14.40
2023-01-06T23:54:57.982Z,14.50
2023-01-06T23:58:00.176Z,14.50
